Time,TemperatureF,DewpointF,PressureIn,WindDirection,WindDirectionDegrees,WindSpeedMPH,WindSpeedGustMPH,Humidity,HourlyPrecipIn,Conditions,Clouds,dailyrainin,SolarRadiationWatts/m^2,SoftwareType,DateUTC
2015-01-27 00:01:00,44.9,36.4,30.08,NNW,338,0.0,0.0,72,0.00,CLR,SCT,0.00,0.0,WeatherDisplay:10.37,2015-01-27 08:01:00,
2015-01-27 00:06:00,44.9,36.4,30.08,NNW,338,0.0,0.0,72,0.00,CLR,SCT,0.00,0.0,WeatherDisplay:10.37,2015-01-27 08:06:00,
2015-01-27 00:11:00,44.9,36.8,30.08,NNW,338,1.1,1.1,73,0.00,CLR,SCT,0.00,0.0,WeatherDisplay:10.37,2015-01-27 08:11:00,
2015-01-27 00:16:00,44.9,36.4,30.08,NNW,338,1.0,0.0,72,0.00,CLR,SCT,0.00,0.0,WeatherDisplay:10.37,2015-01-27 08:16:00,
2015-01-27 00:21:00,44.9,36.4,30.08,NNW,338,1.1,1.1,72,0.00,CLR,SCT,0.00,0.0,WeatherDisplay:10.37,2015-01-27 08:21:00,
2015-01-27 00:26:00,44.9,36.4,30.08,NNW,338,2.3,2.3,72,0.00,CLR,SCT,0.00,0.0,WeatherDisplay:10.37,2015-01-27 08:26:00,
2015-01-27 00:31:00,45.0,36.5,30.08,NNW,338,0.0,0.0,72,0.00,CLR,SCT,0.00,0.0,WeatherDisplay:10.37,2015-01-27 08:31:00,
2015-01-27 00:36:00,44.9,36.1,30.08,NNW,338,1.1,1.1,71,0.00,CLR,SCT,0.00,0.0,WeatherDisplay:10.37,2015-01-27 08:36:00,
2015-01-27 00:41:00,45.0,36.5,30.08,NNW,338,1.0,0.0,72,0.00,CLR,SCT,0.00,0.0,WeatherDisplay:10.37,2015-01-27 08:41:00,
2015-01-27 00:46:00,44.9,36.4,30.08,NNW,338,1.1,0.0,72,0.00,CLR,SCT,0.00,0.0,WeatherDisplay:10.37,2015-01-27 08:46:00,
2015-01-27 00:51:00,44.9,36.8,30.08,NNW,338,1.1,0.0,73,0.00,CLR,SCT,0.00,0.0,WeatherDisplay:10.37,2015-01-27 08:51:00,
2015-01-27 00:56:00,44.8,36.7,30.08,NNW,338,0.0,0.0,73,0.00,CLR,SCT,0.00,0.0,WeatherDisplay:10.37,2015-01-27 08:56:00,
2015-01-27 01:01:00,44.7,36.2,30.08,NNW,338,1.1,1.1,72,0.00,CLR,SCT,0.00,0.0,WeatherDisplay:10.37,2015-01-27 09:01:00,
2015-01-27 01:06:00,44.7,36.2,30.08,NNW,338,1.1,1.1,72,0.00,CLR,SCT,0.00,0.0,WeatherDisplay:10.37,2015-01-27 09:06:00,
2015-01-27 01:11:00,44.7,36.2,30.08,NNW,340,1.1,0.0,72,0.00,CLR,SCT,0.00,0.0,WeatherDisplay:10.37,2015-01-27 09:11:00,
2015-01-27 01:16:00,44.7,36.6,30.09,NNW,340,0.0,0.0,73,0.00,CLR,SCT,0.00,0.0,WeatherDisplay:10.37,2015-01-27 09:16:00,
2015-01-27 01:21:00,44.7,36.2,30.09,NNW,340,0.0,0.0,72,0.00,CLR,SCT,0.00,0.0,WeatherDisplay:10.37,2015-01-27 09:21:00,
2015-01-27 01:26:00,44.6,36.1,30.09,NNW,340,0.0,0.1,72,0.00,CLR,SCT,0.00,0.0,WeatherDisplay:10.37,2015-01-27 09:26:00,
2015-01-27 01:31:00,44.7,36.2,30.09,NNW,340,1.1,0.0,72,0.00,CLR,SCT,0.00,0.0,WeatherDisplay:10.37,2015-01-27 09:31:00,
2015-01-27 01:36:00,44.7,36.2,30.09,NNW,340,1.1,1.1,72,0.00,CLR,SCT,0.00,0.0,WeatherDisplay:10.37,2015-01-27 09:36:00,
2015-01-27 01:41:00,44.7,36.2,30.09,NNW,340,1.1,1.1,72,0.00,CLR,SCT,0.00,0.0,WeatherDisplay:10.37,2015-01-27 09:41:00,
2015-01-27 01:46:00,44.7,36.2,30.09,NNW,340,2.3,2.3,72,0.00,CLR,SCT,0.00,0.0,WeatherDisplay:10.37,2015-01-27 09:46:00,
2015-01-27 01:51:00,44.7,36.2,30.09,NNW,340,1.0,1.0,72,0.00,CLR,SCT,0.00,0.0,WeatherDisplay:10.37,2015-01-27 09:51:00,
2015-01-27 01:56:00,44.8,36.0,30.10,NNW,337,3.0,3.0,71,0.00,CLR,SCT,0.00,0.0,WeatherDisplay:10.37,2015-01-27 09:56:00,
2015-01-27 02:01:00,44.9,36.4,30.10,NNW,337,1.1,1.1,72,0.00,CLR,SCT,0.00,0.0,WeatherDisplay:10.37,2015-01-27 10:01:00,
2015-01-27 02:06:00,44.9,36.4,30.10,NNW,337,1.1,1.1,72,0.00,CLR,SCT,0.00,0.0,WeatherDisplay:10.37,2015-01-27 10:06:00,
2015-01-27 02:11:00,44.9,36.1,30.10,NNW,337,0.0,0.0,71,0.00,CLR,SCT,0.00,0.0,WeatherDisplay:10.37,2015-01-27 10:11:00,
2015-01-27 02:16:00,44.9,36.1,30.10,NNW,331,1.1,1.1,71,0.00,CLR,SCT,0.00,0.0,WeatherDisplay:10.37,2015-01-27 10:16:00,
2015-01-27 02:21:00,44.9,35.7,30.10,NNW,331,1.1,0.0,70,0.00,CLR,SCT,0.00,0.0,WeatherDisplay:10.37,2015-01-27 10:21:00,
2015-01-27 02:26:00,45.0,36.2,30.11,NNW,331,1.1,1.1,71,0.00,CLR,SCT,0.00,0.0,WeatherDisplay:10.37,2015-01-27 10:26:00,
2015-01-27 02:31:00,45.0,36.2,30.11,NNW,330,3.0,3.0,71,0.00,CLR,SCT,0.00,0.0,WeatherDisplay:10.37,2015-01-27 10:31:00,
2015-01-27 02:36:00,44.9,36.1,30.11,NNW,328,0.0,0.0,71,0.00,CLR,SCT,0.00,0.0,WeatherDisplay:10.37,2015-01-27 10:36:00,
2015-01-27 02:41:00,44.9,36.4,30.11,NNW,328,2.3,2.3,72,0.00,CLR,SCT,0.00,0.0,WeatherDisplay:10.37,2015-01-27 10:41:00,
2015-01-27 02:46:00,44.9,36.1,30.12,NNW,328,1.0,1.0,71,0.00,CLR,SCT,0.00,0.0,WeatherDisplay:10.37,2015-01-27 10:46:00,
2015-01-27 02:51:00,44.8,36.3,30.12,NNW,328,3.0,3.0,72,0.00,CLR,SCT,0.00,0.0,WeatherDisplay:10.37,2015-01-27 10:51:00,
2015-01-27 02:56:00,44.9,36.4,30.12,NNW,328,2.3,2.3,72,0.00,CLR,SCT,0.00,0.0,WeatherDisplay:10.37,2015-01-27 10:56:00,
2015-01-27 03:01:00,44.9,36.8,30.12,NNW,328,1.1,1.1,73,0.00,CLR,SCT,0.00,0.0,WeatherDisplay:10.37,2015-01-27 11:01:00,
2015-01-27 03:06:00,44.9,36.8,30.12,NNW,328,0.0,0.1,73,0.00,CLR,SCT,0.00,0.0,WeatherDisplay:10.37,2015-01-27 11:06:00,
2015-01-27 03:11:00,44.9,36.4,30.12,NNW,328,2.0,2.0,72,0.00,CLR,SCT,0.00,0.0,WeatherDisplay:10.37,2015-01-27 11:11:00,
2015-01-27 03:16:00,45.0,36.9,30.12,NNW,328,0.0,0.0,73,0.00,CLR,SCT,0.00,0.0,WeatherDisplay:10.37,2015-01-27 11:16:00,
2015-01-27 03:21:00,45.0,35.8,30.12,NNW,328,1.1,1.1,70,0.00,CLR,SCT,0.00,0.0,WeatherDisplay:10.37,2015-01-27 11:21:00,
2015-01-27 03:26:00,45.0,36.2,30.12,NNW,328,2.0,2.0,71,0.00,CLR,SCT,0.00,0.0,WeatherDisplay:10.37,2015-01-27 11:26:00,
2015-01-27 03:31:00,45.1,36.6,30.12,NNW,328,1.1,1.6,72,0.00,CLR,SCT,0.00,0.0,WeatherDisplay:10.37,2015-01-27 11:31:00,
2015-01-27 03:36:00,45.1,37.0,30.13,NNW,328,2.3,2.3,73,0.00,CLR,SCT,0.00,0.0,WeatherDisplay:10.37,2015-01-27 11:36:00,
2015-01-27 03:41:00,45.1,37.0,30.12,NNW,328,2.3,2.3,73,0.00,CLR,SCT,0.00,0.0,WeatherDisplay:10.37,2015-01-27 11:41:00,
2015-01-27 03:46:00,45.0,36.9,30.13,NNW,328,2.3,2.3,73,0.00,CLR,SCT,0.00,0.0,WeatherDisplay:10.37,2015-01-27 11:46:00,
2015-01-27 03:51:00,45.0,36.5,30.13,NNW,327,3.5,3.5,72,0.00,CLR,SCT,0.00,0.0,WeatherDisplay:10.37,2015-01-27 11:51:00,
2015-01-27 03:56:00,45.1,37.0,30.13,ESE,103,1.1,1.1,73,0.00,CLR,SCT,0.00,0.0,WeatherDisplay:10.37,2015-01-27 11:56:00,
2015-01-27 04:01:00,45.1,37.3,30.12,ESE,103,1.1,1.1,74,0.00,CLR,SCT,0.00,0.0,WeatherDisplay:10.37,2015-01-27 12:01:00,
2015-01-27 04:06:00,45.0,36.9,30.13,ESE,103,0.0,0.0,73,0.00,CLR,SCT,0.00,0.0,WeatherDisplay:10.37,2015-01-27 12:06:00,
2015-01-27 04:11:00,45.0,36.9,30.13,ESE,103,0.0,0.0,73,0.00,CLR,SCT,0.00,0.0,WeatherDisplay:10.37,2015-01-27 12:11:00,
2015-01-27 04:16:00,45.0,37.6,30.12,ESE,103,1.0,1.0,75,0.00,CLR,SCT,0.00,0.0,WeatherDisplay:10.37,2015-01-27 12:16:00,
2015-01-27 04:21:00,44.9,37.5,30.13,ESE,103,0.0,0.0,75,0.00,CLR,SCT,0.00,0.0,WeatherDisplay:10.37,2015-01-27 12:21:00,
2015-01-27 04:26:00,44.8,37.4,30.13,ESE,103,0.0,0.0,75,0.00,CLR,SCT,0.00,0.0,WeatherDisplay:10.37,2015-01-27 12:26:00,
2015-01-27 04:31:00,44.7,37.3,30.13,ESE,103,2.3,2.3,75,0.00,CLR,SCT,0.00,0.0,WeatherDisplay:10.37,2015-01-27 12:31:00,
2015-01-27 04:36:00,44.6,37.5,30.13,ESE,103,1.1,1.1,76,0.00,CLR,SCT,0.00,0.0,WeatherDisplay:10.37,2015-01-27 12:36:00,
2015-01-27 04:41:00,44.4,37.6,30.13,ESE,102,2.3,2.3,77,0.00,CLR,SCT,0.00,0.0,WeatherDisplay:10.37,2015-01-27 12:41:00,
2015-01-27 04:46:00,44.2,37.4,30.14,ESE,102,0.0,0.0,77,0.00,CLR,SCT,0.00,0.0,WeatherDisplay:10.37,2015-01-27 12:46:00,
2015-01-27 04:51:00,44.0,37.6,30.14,ESE,102,1.1,1.1,78,0.00,CLR,SCT,0.00,0.0,WeatherDisplay:10.37,2015-01-27 12:51:00,
2015-01-27 04:56:00,44.0,37.6,30.14,ESE,102,0.0,0.0,78,0.00,CLR,SCT,0.00,0.0,WeatherDisplay:10.37,2015-01-27 12:56:00,
2015-01-27 05:01:00,43.9,37.5,30.14,ESE,102,0.0,0.0,78,0.00,CLR,SCT,0.00,0.0,WeatherDisplay:10.37,2015-01-27 13:01:00,
2015-01-27 05:06:00,43.8,37.4,30.14,ESE,102,0.0,0.0,78,0.00,CLR,SCT,0.00,0.0,WeatherDisplay:10.37,2015-01-27 13:06:00,
2015-01-27 05:11:00,43.7,37.3,30.14,ESE,102,0.0,0.0,78,0.00,CLR,SCT,0.00,0.0,WeatherDisplay:10.37,2015-01-27 13:11:00,
2015-01-27 05:16:00,43.6,37.2,30.14,ESE,102,0.0,0.0,78,0.00,CLR,SCT,0.00,0.0,WeatherDisplay:10.37,2015-01-27 13:16:00,
2015-01-27 05:21:00,43.6,37.5,30.15,ESE,102,0.0,0.0,79,0.00,CLR,SCT,0.00,0.0,WeatherDisplay:10.37,2015-01-27 13:21:00,
2015-01-27 05:26:00,43.5,37.4,30.15,ESE,102,0.0,0.0,79,0.00,CLR,SCT,0.00,0.0,WeatherDisplay:10.37,2015-01-27 13:26:00,
2015-01-27 05:31:00,43.4,37.3,30.15,ESE,102,1.1,1.1,79,0.00,CLR,SCT,0.00,0.0,WeatherDisplay:10.37,2015-01-27 13:31:00,
2015-01-27 05:36:00,43.3,37.5,30.15,NNW,333,2.3,2.3,80,0.00,CLR,SCT,0.00,0.0,WeatherDisplay:10.37,2015-01-27 13:36:00,
2015-01-27 05:41:00,43.3,37.2,30.15,NNW,333,1.1,1.1,79,0.00,FEW,SCT,0.00,0.0,WeatherDisplay:10.37,2015-01-27 13:41:00,
2015-01-27 05:46:00,43.2,37.4,30.16,NNW,333,1.1,1.1,80,0.00,FEW,SCT,0.00,0.0,WeatherDisplay:10.37,2015-01-27 13:46:00,
2015-01-27 05:51:00,43.2,37.1,30.16,NNW,334,2.3,2.3,79,0.00,FEW,SCT,0.00,0.0,WeatherDisplay:10.37,2015-01-27 13:51:00,
2015-01-27 05:56:00,43.2,37.4,30.16,North,355,1.1,1.1,80,0.00,FEW,SCT,0.00,0.0,WeatherDisplay:10.37,2015-01-27 13:56:00,
2015-01-27 06:01:00,43.2,37.4,30.16,NNW,336,3.5,3.5,80,0.00,BKN,SCT,0.00,0.0,WeatherDisplay:10.37,2015-01-27 14:01:00,
2015-01-27 06:06:00,43.3,37.2,30.17,NW,320,2.3,2.3,79,0.00,BKN,SCT,0.00,0.0,WeatherDisplay:10.37,2015-01-27 14:06:00,
2015-01-27 06:11:00,43.4,37.3,30.17,NW,323,1.1,1.1,79,0.00,BKN,SCT,0.00,0.0,WeatherDisplay:10.37,2015-01-27 14:11:00,
2015-01-27 06:16:00,43.4,37.6,30.17,ENE,63,2.3,2.3,80,0.00,BKN,SCT,0.00,0.0,WeatherDisplay:10.37,2015-01-27 14:16:00,
2015-01-27 06:21:00,43.4,37.6,30.17,North,5,1.1,1.1,80,0.00,BKN,SCT,0.00,0.0,WeatherDisplay:10.37,2015-01-27 14:21:00,
2015-01-27 06:26:00,43.3,37.2,30.18,NW,309,2.3,2.3,79,0.00,BKN,SCT,0.00,0.0,WeatherDisplay:10.37,2015-01-27 14:26:00,
2015-01-27 06:31:00,43.4,37.6,30.18,NW,309,0.0,0.0,80,0.00,BKN,SCT,0.00,0.0,WeatherDisplay:10.37,2015-01-27 14:31:00,
2015-01-27 06:36:00,43.4,37.6,30.18,NW,309,1.1,1.1,80,0.00,BKN,SCT,0.00,0.0,WeatherDisplay:10.37,2015-01-27 14:36:00,
2015-01-27 06:41:00,43.4,37.6,30.18,NW,309,2.3,2.3,80,0.00,FEW,SCT,0.00,0.0,WeatherDisplay:10.37,2015-01-27 14:41:00,
2015-01-27 06:46:00,43.4,37.6,30.19,NW,309,0.0,0.0,80,0.00,FEW,SCT,0.00,0.0,WeatherDisplay:10.37,2015-01-27 14:46:00,
2015-01-27 06:51:00,43.5,37.7,30.19,NW,309,0.0,0.0,80,0.00,FEW,SCT,0.00,0.0,WeatherDisplay:10.37,2015-01-27 14:51:00,
2015-01-27 06:56:00,43.6,38.2,30.19,NW,309,0.0,0.0,81,0.00,FEW,SCT,0.00,0.0,WeatherDisplay:10.37,2015-01-27 14:56:00,
2015-01-27 07:01:00,43.6,38.2,30.19,NW,309,1.1,1.1,81,0.00,CLR,SCT,0.00,0.0,WeatherDisplay:10.37,2015-01-27 15:01:00,
2015-01-27 07:06:00,43.6,38.2,30.20,NW,309,0.0,0.0,81,0.00,CLR,SCT,0.00,0.0,WeatherDisplay:10.37,2015-01-27 15:06:00,
2015-01-27 07:11:00,43.8,38.0,30.20,NW,306,1.1,1.1,80,0.00,CLR,SCT,0.00,0.0,WeatherDisplay:10.37,2015-01-27 15:11:00,
2015-01-27 07:16:00,43.9,38.1,30.20,South,171,4.0,4.0,80,0.00,CLR,SCT,0.00,0.0,WeatherDisplay:10.37,2015-01-27 15:16:00,
2015-01-27 07:21:00,44.6,38.5,30.20,SSE,149,1.1,1.1,79,0.00,FEW,SCT,0.00,0.0,WeatherDisplay:10.37,2015-01-27 15:21:00,
2015-01-27 07:26:00,44.8,38.4,30.21,South,172,2.0,2.0,78,0.00,FEW,SCT,0.00,0.0,WeatherDisplay:10.37,2015-01-27 15:26:00,
2015-01-27 07:31:00,45.3,38.8,30.21,SSE,155,2.0,2.0,78,0.00,FEW,SCT,0.00,0.0,WeatherDisplay:10.37,2015-01-27 15:31:00,
2015-01-27 07:36:00,45.4,38.6,30.21,SSE,155,1.1,1.1,77,0.00,FEW,SCT,0.00,0.0,WeatherDisplay:10.37,2015-01-27 15:36:00,
2015-01-27 07:41:00,45.5,38.7,30.21,SSE,155,2.3,2.3,77,0.00,FEW,SCT,0.00,0.0,WeatherDisplay:10.37,2015-01-27 15:41:00,
2015-01-27 07:46:00,45.6,38.8,30.21,SSE,155,1.1,1.1,77,0.00,FEW,SCT,0.00,0.0,WeatherDisplay:10.37,2015-01-27 15:46:00,
2015-01-27 07:51:00,45.6,38.8,30.21,SSE,154,2.3,2.3,77,0.00,FEW,SCT,0.00,0.0,WeatherDisplay:10.37,2015-01-27 15:51:00,
2015-01-27 07:56:00,45.5,38.7,30.21,SSE,154,2.3,2.3,77,0.00,FEW,SCT,0.00,0.0,WeatherDisplay:10.37,2015-01-27 15:56:00,
2015-01-27 08:01:00,45.6,38.8,30.22,SW,227,0.0,0.0,77,0.00,CLR,SCT,0.00,0.0,WeatherDisplay:10.37,2015-01-27 16:01:00,
2015-01-27 08:06:00,45.5,39.0,30.22,SW,227,1.1,1.1,78,0.00,CLR,SCT,0.00,0.0,WeatherDisplay:10.37,2015-01-27 16:06:00,
2015-01-27 08:11:00,45.5,39.0,30.22,WNW,294,3.0,3.0,78,0.00,CLR,SCT,0.00,0.0,WeatherDisplay:10.37,2015-01-27 16:11:00,
2015-01-27 08:16:00,45.5,39.0,30.22,WNW,294,0.0,0.0,78,0.00,CLR,SCT,0.00,0.0,WeatherDisplay:10.37,2015-01-27 16:16:00,
2015-01-27 08:21:00,45.4,38.9,30.22,WNW,294,2.3,2.3,78,0.00,CLR,SCT,0.00,0.0,WeatherDisplay:10.37,2015-01-27 16:21:00,
2015-01-27 08:26:00,45.5,39.4,30.22,WNW,294,0.0,0.0,79,0.00,CLR,SCT,0.00,0.0,WeatherDisplay:10.37,2015-01-27 16:26:00,
2015-01-27 08:31:00,45.5,39.4,30.22,WNW,294,1.1,1.1,79,0.00,CLR,SCT,0.00,0.0,WeatherDisplay:10.37,2015-01-27 16:31:00,
2015-01-27 08:36:00,45.4,39.3,30.23,WNW,294,0.0,0.0,79,0.00,CLR,SCT,0.00,0.0,WeatherDisplay:10.37,2015-01-27 16:36:00,
2015-01-27 08:41:00,45.5,39.4,30.23,WNW,294,1.1,1.1,79,0.00,CLR,SCT,0.00,0.0,WeatherDisplay:10.37,2015-01-27 16:41:00,
2015-01-27 08:46:00,45.5,39.7,30.23,WNW,294,0.0,0.0,80,0.00,CLR,SCT,0.00,0.0,WeatherDisplay:10.37,2015-01-27 16:46:00,
2015-01-27 08:51:00,45.5,39.7,30.23,WNW,294,0.0,0.0,80,0.00,CLR,SCT,0.00,0.0,WeatherDisplay:10.37,2015-01-27 16:51:00,
2015-01-27 08:56:00,45.5,39.7,30.23,WNW,294,0.0,0.0,80,0.00,CLR,SCT,0.00,0.0,WeatherDisplay:10.37,2015-01-27 16:56:00,
2015-01-27 09:01:00,45.6,40.1,30.23,WNW,294,1.1,1.1,81,0.00,CLR,SCT,0.00,0.0,WeatherDisplay:10.37,2015-01-27 17:01:00,
2015-01-27 09:06:00,45.5,40.0,30.24,WNW,296,2.3,2.3,81,0.00,CLR,SCT,0.00,0.0,WeatherDisplay:10.37,2015-01-27 17:06:00,
2015-01-27 09:11:00,45.5,39.7,30.24,NW,313,1.1,1.1,80,0.00,CLR,SCT,0.00,0.0,WeatherDisplay:10.37,2015-01-27 17:11:00,
2015-01-27 09:16:00,45.6,39.8,30.24,NW,313,2.0,2.0,80,0.00,CLR,SCT,0.00,0.0,WeatherDisplay:10.37,2015-01-27 17:16:00,
2015-01-27 09:21:00,45.7,39.6,30.24,NW,319,1.1,1.1,79,0.00,CLR,SCT,0.00,0.0,WeatherDisplay:10.37,2015-01-27 17:21:00,
2015-01-27 09:26:00,45.9,37.7,30.24,NW,323,3.5,3.5,73,0.00,CLR,SCT,0.00,0.0,WeatherDisplay:10.37,2015-01-27 17:26:00,
2015-01-27 09:31:00,46.1,38.6,30.24,NW,307,3.5,3.5,75,0.00,CLR,SCT,0.00,0.0,WeatherDisplay:10.37,2015-01-27 17:31:00,
2015-01-27 09:36:00,46.3,39.5,30.25,NW,307,1.1,1.1,77,0.00,CLR,SCT,0.00,0.0,WeatherDisplay:10.37,2015-01-27 17:36:00,
2015-01-27 09:41:00,46.5,40.0,30.25,WNW,290,1.1,1.1,78,0.00,CLR,SCT,0.00,0.0,WeatherDisplay:10.37,2015-01-27 17:41:00,
2015-01-27 09:46:00,46.5,38.3,30.25,WNW,293,2.3,2.3,73,0.00,CLR,SCT,0.00,0.0,WeatherDisplay:10.37,2015-01-27 17:46:00,
2015-01-27 09:51:00,46.6,36.6,30.25,WNW,294,3.5,3.5,68,0.00,CLR,SCT,0.00,0.0,WeatherDisplay:10.37,2015-01-27 17:51:00,
2015-01-27 09:56:00,47.0,38.4,30.25,WNW,290,1.1,0.0,72,0.00,CLR,SCT,0.00,0.0,WeatherDisplay:10.37,2015-01-27 17:56:00,
2015-01-27 10:01:00,47.1,37.8,30.25,WNW,288,3.0,3.0,70,0.00,CLR,SCT,0.00,0.0,WeatherDisplay:10.37,2015-01-27 18:01:00,
2015-01-27 10:06:00,47.2,38.6,30.25,West,274,2.3,2.3,72,0.00,CLR,SCT,0.00,0.0,WeatherDisplay:10.37,2015-01-27 18:06:00,
2015-01-27 10:11:00,47.3,38.4,30.25,WNW,287,2.3,2.3,71,0.00,CLR,SCT,0.00,0.0,WeatherDisplay:10.37,2015-01-27 18:11:00,
2015-01-27 10:16:00,47.3,38.7,30.26,WNW,287,1.1,0.0,72,0.00,CLR,SCT,0.00,0.0,WeatherDisplay:10.37,2015-01-27 18:16:00,
2015-01-27 10:21:00,47.4,39.2,30.26,WNW,287,1.1,1.1,73,0.00,CLR,SCT,0.00,0.0,WeatherDisplay:10.37,2015-01-27 18:21:00,
2015-01-27 10:26:00,47.4,38.1,30.26,North,5,3.5,3.5,70,0.00,CLR,SCT,0.00,0.0,WeatherDisplay:10.37,2015-01-27 18:26:00,
2015-01-27 10:31:00,47.5,37.8,30.27,North,5,1.1,1.1,69,0.00,CLR,SCT,0.00,0.0,WeatherDisplay:10.37,2015-01-27 18:31:00,
2015-01-27 10:36:00,47.6,38.3,30.27,North,360,2.3,2.3,70,0.00,CLR,SCT,0.00,0.0,WeatherDisplay:10.37,2015-01-27 18:36:00,
2015-01-27 10:41:00,47.6,37.9,30.27,North,360,1.1,1.1,69,0.00,CLR,SCT,0.00,0.0,WeatherDisplay:10.37,2015-01-27 18:41:00,
2015-01-27 10:46:00,47.7,38.8,30.26,NNW,335,3.5,3.5,71,0.00,CLR,SCT,0.00,0.0,WeatherDisplay:10.37,2015-01-27 18:46:00,
2015-01-27 10:51:00,47.7,38.8,30.26,NW,314,2.3,2.3,71,0.00,CLR,SCT,0.00,0.0,WeatherDisplay:10.37,2015-01-27 18:51:00,
2015-01-27 10:56:00,47.7,38.4,30.26,NW,314,2.3,2.3,70,0.00,CLR,SCT,0.00,0.0,WeatherDisplay:10.37,2015-01-27 18:56:00,
2015-01-27 11:01:00,47.8,37.7,30.26,NW,314,1.1,1.1,68,0.00,CLR,SCT,0.00,0.0,WeatherDisplay:10.37,2015-01-27 19:01:00,
2015-01-27 11:06:00,47.9,38.2,30.26,NW,314,1.1,1.1,69,0.00,CLR,SCT,0.00,0.0,WeatherDisplay:10.37,2015-01-27 19:06:00,
2015-01-27 11:11:00,48.0,37.9,30.26,WNW,282,2.3,2.3,68,0.00,CLR,SCT,0.00,0.0,WeatherDisplay:10.37,2015-01-27 19:11:00,
2015-01-27 11:16:00,48.1,37.7,30.26,SSW,207,1.1,1.1,67,0.00,CLR,SCT,0.00,0.0,WeatherDisplay:10.37,2015-01-27 19:16:00,
2015-01-27 11:21:00,48.2,38.1,30.26,WNW,300,3.0,3.0,68,0.00,CLR,SCT,0.00,0.0,WeatherDisplay:10.37,2015-01-27 19:21:00,
2015-01-27 11:26:00,48.2,38.1,30.26,WSW,257,1.1,1.1,68,0.00,CLR,SCT,0.00,0.0,WeatherDisplay:10.37,2015-01-27 19:26:00,
2015-01-27 11:31:00,48.2,38.5,30.26,WSW,257,1.1,0.0,69,0.00,CLR,SCT,0.00,0.0,WeatherDisplay:10.37,2015-01-27 19:31:00,
2015-01-27 11:36:00,48.3,38.6,30.26,WSW,257,1.1,0.0,69,0.00,CLR,SCT,0.00,0.0,WeatherDisplay:10.37,2015-01-27 19:36:00,
2015-01-27 11:41:00,48.4,38.3,30.25,ESE,119,3.5,3.5,68,0.00,CLR,SCT,0.00,0.0,WeatherDisplay:10.37,2015-01-27 19:41:00,
2015-01-27 11:46:00,48.6,38.5,30.25,SE,128,2.3,2.3,68,0.00,CLR,SCT,0.00,0.0,WeatherDisplay:10.37,2015-01-27 19:46:00,
2015-01-27 11:51:00,48.7,38.6,30.25,South,190,2.3,2.3,68,0.00,CLR,SCT,0.00,0.0,WeatherDisplay:10.37,2015-01-27 19:51:00,
2015-01-27 11:56:00,48.7,38.6,30.25,WNW,299,4.6,4.6,68,0.00,CLR,SCT,0.00,0.0,WeatherDisplay:10.37,2015-01-27 19:56:00,
2015-01-27 12:01:00,48.7,38.6,30.25,West,269,2.3,2.3,68,0.00,CLR,SCT,0.00,0.0,WeatherDisplay:10.37,2015-01-27 20:01:00,
2015-01-27 12:06:00,48.7,38.2,30.25,NW,315,2.3,2.3,67,0.00,CLR,SCT,0.00,0.0,WeatherDisplay:10.37,2015-01-27 20:06:00,
2015-01-27 12:11:00,48.8,38.7,30.25,NW,315,1.1,1.1,68,0.00,CLR,SCT,0.00,0.0,WeatherDisplay:10.37,2015-01-27 20:11:00,
2015-01-27 12:16:00,49.0,38.1,30.25,East,80,1.1,1.1,66,0.00,CLR,SCT,0.00,0.0,WeatherDisplay:10.37,2015-01-27 20:16:00,
2015-01-27 12:21:00,49.2,38.7,30.25,NNW,336,2.3,2.3,67,0.00,CLR,SCT,0.00,0.0,WeatherDisplay:10.37,2015-01-27 20:21:00,
2015-01-27 12:26:00,49.3,38.8,30.25,NNW,336,1.0,1.0,67,0.00,CLR,SCT,0.00,0.0,WeatherDisplay:10.37,2015-01-27 20:26:00,
2015-01-27 12:31:00,49.4,38.5,30.25,NNW,336,2.3,2.3,66,0.00,CLR,SCT,0.00,0.0,WeatherDisplay:10.37,2015-01-27 20:31:00,
2015-01-27 12:36:00,49.6,37.5,30.25,NE,54,1.1,1.1,63,0.00,CLR,SCT,0.00,0.0,WeatherDisplay:10.37,2015-01-27 20:36:00,
2015-01-27 12:41:00,49.7,37.2,30.25,SSE,163,2.3,2.3,62,0.00,CLR,SCT,0.00,0.0,WeatherDisplay:10.37,2015-01-27 20:41:00,
2015-01-27 12:46:00,49.8,37.3,30.25,SSE,153,3.5,3.5,62,0.00,CLR,SCT,0.00,0.0,WeatherDisplay:10.37,2015-01-27 20:46:00,
2015-01-27 12:51:00,49.9,37.4,30.25,SSE,153,2.3,2.3,62,0.00,CLR,SCT,0.00,0.0,WeatherDisplay:10.37,2015-01-27 20:51:00,
2015-01-27 12:56:00,50.0,37.9,30.25,SSE,153,1.1,1.1,63,0.00,CLR,SCT,0.00,0.0,WeatherDisplay:10.37,2015-01-27 20:56:00,
2015-01-27 13:01:00,50.1,38.4,30.25,SSE,153,2.0,2.0,64,0.00,CLR,SCT,0.00,0.0,WeatherDisplay:10.37,2015-01-27 21:01:00,
2015-01-27 13:06:00,50.2,37.7,30.25,SSE,153,2.3,2.3,62,0.00,CLR,SCT,0.00,0.0,WeatherDisplay:10.37,2015-01-27 21:06:00,
2015-01-27 13:11:00,50.2,38.1,30.25,SSE,153,1.1,1.1,63,0.00,CLR,SCT,0.00,0.0,WeatherDisplay:10.37,2015-01-27 21:11:00,
2015-01-27 13:16:00,50.2,38.1,30.25,SSE,153,1.1,1.1,63,0.00,CLR,SCT,0.00,0.0,WeatherDisplay:10.37,2015-01-27 21:16:00,
2015-01-27 13:21:00,50.3,38.2,30.25,SSE,153,1.1,1.1,63,0.00,CLR,SCT,0.00,0.0,WeatherDisplay:10.37,2015-01-27 21:21:00,
2015-01-27 13:26:00,50.3,38.2,30.25,SSE,153,3.5,3.5,63,0.00,CLR,SCT,0.00,0.0,WeatherDisplay:10.37,2015-01-27 21:26:00,
2015-01-27 13:31:00,50.1,37.6,30.25,SSE,153,2.3,2.3,62,0.00,CLR,SCT,0.00,0.0,WeatherDisplay:10.37,2015-01-27 21:31:00,
2015-01-27 13:36:00,50.1,38.0,30.25,SSE,153,1.1,1.1,63,0.00,CLR,SCT,0.00,0.0,WeatherDisplay:10.37,2015-01-27 21:36:00,
2015-01-27 13:41:00,50.1,38.4,30.25,SSE,153,2.3,2.3,64,0.00,CLR,SCT,0.00,0.0,WeatherDisplay:10.37,2015-01-27 21:41:00,
2015-01-27 13:46:00,50.1,37.6,30.25,SSE,153,1.1,1.1,62,0.00,CLR,SCT,0.00,0.0,WeatherDisplay:10.37,2015-01-27 21:46:00,
2015-01-27 13:51:00,50.2,38.1,30.25,SSE,153,0.0,0.0,63,0.00,CLR,SCT,0.00,0.0,WeatherDisplay:10.37,2015-01-27 21:51:00,
2015-01-27 13:56:00,50.3,37.8,30.25,SSE,153,1.1,1.1,62,0.00,CLR,SCT,0.00,0.0,WeatherDisplay:10.37,2015-01-27 21:56:00,
2015-01-27 14:01:00,50.3,36.9,30.26,SSE,153,2.3,2.3,60,0.00,CLR,SCT,0.00,0.0,WeatherDisplay:10.37,2015-01-27 22:01:00,
2015-01-27 14:06:00,50.3,36.5,30.26,SSE,153,1.1,1.1,59,0.00,CLR,SCT,0.00,0.0,WeatherDisplay:10.37,2015-01-27 22:06:00,
2015-01-27 14:11:00,50.3,36.9,30.26,SSE,153,0.0,0.0,60,0.00,CLR,SCT,0.00,0.0,WeatherDisplay:10.37,2015-01-27 22:11:00,
2015-01-27 14:16:00,50.4,36.2,30.26,SSE,153,0.0,0.0,58,0.00,CLR,SCT,0.00,0.0,WeatherDisplay:10.37,2015-01-27 22:16:00,
2015-01-27 14:21:00,50.5,36.7,30.26,SSW,202,1.1,1.1,59,0.00,CLR,SCT,0.00,0.0,WeatherDisplay:10.37,2015-01-27 22:21:00,
2015-01-27 14:26:00,50.4,37.0,30.26,SSW,202,1.1,1.1,60,0.00,CLR,SCT,0.00,0.0,WeatherDisplay:10.37,2015-01-27 22:26:00,
2015-01-27 14:31:00,50.5,37.5,30.27,SSW,202,1.1,1.1,61,0.00,CLR,SCT,0.00,0.0,WeatherDisplay:10.37,2015-01-27 22:31:00,
2015-01-27 14:36:00,50.5,38.0,30.27,SSW,202,2.3,2.3,62,0.00,CLR,SCT,0.00,0.0,WeatherDisplay:10.37,2015-01-27 22:36:00,
2015-01-27 14:41:00,50.4,37.4,30.27,SSW,202,1.1,1.1,61,0.00,CLR,SCT,0.00,0.0,WeatherDisplay:10.37,2015-01-27 22:41:00,
2015-01-27 14:46:00,50.3,37.4,30.27,SSW,202,1.1,1.1,61,0.00,CLR,SCT,0.00,0.0,WeatherDisplay:10.37,2015-01-27 22:46:00,
2015-01-27 14:51:00,50.4,37.4,30.27,SSW,202,0.0,0.0,61,0.00,CLR,SCT,0.00,0.0,WeatherDisplay:10.37,2015-01-27 22:51:00,
2015-01-27 14:56:00,50.5,37.1,30.27,South,188,2.3,2.3,60,0.00,CLR,SCT,0.00,0.0,WeatherDisplay:10.37,2015-01-27 22:56:00,
2015-01-27 15:01:00,50.6,37.2,30.27,South,188,1.1,0.0,60,0.00,BKN,SCT,0.00,0.0,WeatherDisplay:10.37,2015-01-27 23:01:00,
2015-01-27 15:06:00,50.8,38.2,30.27,South,188,0.0,0.0,62,0.00,BKN,SCT,0.00,0.0,WeatherDisplay:10.37,2015-01-27 23:06:00,
2015-01-27 15:11:00,51.0,37.2,30.27,ESE,116,3.5,3.5,59,0.00,BKN,SCT,0.00,0.0,WeatherDisplay:10.37,2015-01-27 23:11:00,
2015-01-27 15:16:00,51.0,37.6,30.27,ESE,116,2.0,2.0,60,0.00,BKN,SCT,0.00,0.0,WeatherDisplay:10.37,2015-01-27 23:16:00,
2015-01-27 15:21:00,51.2,37.4,30.27,SE,134,3.5,3.5,59,0.00,BKN,SCT,0.00,0.0,WeatherDisplay:10.37,2015-01-27 23:21:00,
2015-01-27 15:26:00,51.3,36.6,30.27,SE,136,2.3,2.3,57,0.00,BKN,SCT,0.00,0.0,WeatherDisplay:10.37,2015-01-27 23:26:00,
2015-01-27 15:31:00,51.4,37.5,30.27,SE,138,3.5,3.5,59,0.00,BKN,SCT,0.00,0.0,WeatherDisplay:10.37,2015-01-27 23:31:00,
2015-01-27 15:36:00,51.5,36.3,30.27,SE,138,2.3,2.3,56,0.00,BKN,SCT,0.00,0.0,WeatherDisplay:10.37,2015-01-27 23:36:00,
2015-01-27 15:41:00,51.7,36.5,30.27,ESE,121,3.5,3.5,56,0.00,BKN,SCT,0.00,0.0,WeatherDisplay:10.37,2015-01-27 23:41:00,
2015-01-27 15:46:00,51.7,35.6,30.27,SE,130,3.0,3.0,54,0.00,BKN,SCT,0.00,0.0,WeatherDisplay:10.37,2015-01-27 23:46:00,
2015-01-27 15:51:00,51.5,36.3,30.28,SE,138,2.3,2.3,56,0.00,SCT,,0.00,0.0,WeatherDisplay:10.37,2015-01-27 23:51:00,
2015-01-27 15:56:00,51.3,37.0,30.28,SE,138,1.1,1.1,58,0.00,SCT,,0.00,0.0,WeatherDisplay:10.37,2015-01-27 23:56:00,
2015-01-27 16:01:00,51.2,37.8,30.28,SE,138,2.3,2.3,60,0.00,CLR,SCT,0.00,0.0,WeatherDisplay:10.37,2015-01-28 00:01:00,
2015-01-27 16:06:00,51.0,36.3,30.28,SE,138,1.1,1.1,57,0.00,CLR,SCT,0.00,0.0,WeatherDisplay:10.37,2015-01-28 00:06:00,
2015-01-27 16:11:00,50.8,37.4,30.28,SE,138,1.1,1.1,60,0.00,CLR,SCT,0.00,0.0,WeatherDisplay:10.37,2015-01-28 00:11:00,
2015-01-27 16:16:00,50.5,38.0,30.28,SE,138,1.1,1.1,62,0.00,CLR,SCT,0.00,0.0,WeatherDisplay:10.37,2015-01-28 00:16:00,
2015-01-27 16:21:00,50.3,38.2,30.28,SE,138,1.1,1.1,63,0.00,BKN,SCT,0.00,0.0,WeatherDisplay:10.37,2015-01-28 00:21:00,
2015-01-27 16:26:00,50.0,38.7,30.27,SE,138,1.1,1.1,65,0.00,BKN,SCT,0.00,0.0,WeatherDisplay:10.37,2015-01-28 00:26:00,
2015-01-27 16:31:00,49.6,38.7,30.27,SE,138,1.1,1.1,66,0.00,BKN,SCT,0.00,0.0,WeatherDisplay:10.37,2015-01-28 00:31:00,
2015-01-27 16:36:00,49.4,39.3,30.27,SE,138,0.0,0.0,68,0.00,BKN,SCT,0.00,0.0,WeatherDisplay:10.37,2015-01-28 00:36:00,
2015-01-27 16:41:00,49.0,39.3,30.28,SE,138,0.0,0.0,69,0.00,OVC,SCT,0.00,0.0,WeatherDisplay:10.37,2015-01-28 00:41:00,
2015-01-27 16:46:00,48.6,39.3,30.28,SE,138,1.0,1.0,70,0.00,OVC,SCT,0.00,0.0,WeatherDisplay:10.37,2015-01-28 00:46:00,
2015-01-27 16:51:00,48.1,38.8,30.28,SE,138,1.1,0.0,70,0.00,OVC,SCT,0.00,0.0,WeatherDisplay:10.37,2015-01-28 00:51:00,
2015-01-27 16:56:00,47.6,38.7,30.28,SE,138,1.1,1.1,71,0.00,OVC,SCT,0.00,0.0,WeatherDisplay:10.37,2015-01-28 00:56:00,
2015-01-27 17:01:00,47.1,38.9,30.28,SE,138,1.1,1.1,73,0.00,BKN,SCT,0.00,0.0,WeatherDisplay:10.37,2015-01-28 01:01:00,
2015-01-27 17:06:00,46.5,38.7,30.28,SE,138,1.1,1.1,74,0.00,BKN,SCT,0.00,0.0,WeatherDisplay:10.37,2015-01-28 01:06:00,
2015-01-27 17:11:00,46.1,38.3,30.28,SE,138,1.1,1.1,74,0.00,BKN,SCT,0.00,0.0,WeatherDisplay:10.37,2015-01-28 01:11:00,
2015-01-27 17:16:00,45.7,38.2,30.28,SE,138,1.0,0.0,75,0.00,BKN,SCT,0.00,0.0,WeatherDisplay:10.37,2015-01-28 01:16:00,
2015-01-27 17:21:00,45.4,37.9,30.29,SE,138,0.0,0.0,75,0.00,SCT,,0.00,0.0,WeatherDisplay:10.37,2015-01-28 01:21:00,
2015-01-27 17:26:00,45.1,37.3,30.29,SE,138,1.1,0.0,74,0.00,SCT,,0.00,0.0,WeatherDisplay:10.37,2015-01-28 01:26:00,
2015-01-27 17:31:00,44.8,37.4,30.29,SE,138,1.1,1.1,75,0.00,SCT,,0.00,0.0,WeatherDisplay:10.37,2015-01-28 01:31:00,